Time;durP1;ratioP1;P1;durP2;ratioP2;P2;SDS_P1;SDS_P2;PMS_P1;PMS_P2;Temp;Humidity;BMP_temperature;BMP_pressure;BME280_temperature;BME280_humidity;BME280_pressure;Samples;Min_cycle;Max_cycle;Signal;HPM_P1;HPM_P2
2023/12/26 00:00:58;;;;;;;0.50;0.10;;;11.30;99.90;;;;;;5013937;28;20450;-74
2023/12/26 00:03:26;;;;;;;0.50;0.10;;;11.30;99.90;;;;;;5006105;28;20486;-74
2023/12/26 00:05:55;;;;;;;0.50;0.10;;;;;;;;;;5004981;28;20993;-74
2023/12/26 00:08:24;;;;;;;0.50;0.10;;;11.20;99.90;;;;;;5013836;28;20450;-74
2023/12/26 00:10:51;;;;;;;0.50;0.10;;;11.20;99.90;;;;;;5013995;28;20481;-73
2023/12/26 00:13:19;;;;;;;0.50;0.10;;;11.20;99.90;;;;;;5015584;28;20479;-73
2023/12/26 00:15:47;;;;;;;0.50;0.10;;;11.20;99.90;;;;;;5011942;28;21045;-76
2023/12/26 00:18:16;;;;;;;0.50;0.10;;;11.20;99.90;;;;;;5014060;28;20879;-76
2023/12/26 00:20:45;;;;;;;0.50;0.10;;;;;;;;;;5012209;28;20982;-75
2023/12/26 00:23:15;;;;;;;0.50;0.10;;;11.30;99.90;;;;;;5011697;28;20527;-75
2023/12/26 00:25:44;;;;;;;0.50;0.10;;;11.30;99.90;;;;;;5003742;28;20475;-75
2023/12/26 00:28:13;;;;;;;0.50;0.10;;;11.30;99.90;;;;;;5014660;28;20478;-74
2023/12/26 00:30:41;;;;;;;0.50;0.10;;;11.30;99.90;;;;;;5014269;28;20534;-76
2023/12/26 00:33:09;;;;;;;0.50;0.20;;;11.20;99.90;;;;;;5010976;28;20502;-75
2023/12/26 00:35:38;;;;;;;0.50;0.10;;;11.30;99.90;;;;;;5013712;28;20480;-75
2023/12/26 00:38:06;;;;;;;0.50;0.10;;;11.30;99.90;;;;;;5013650;28;20549;-75
2023/12/26 00:40:39;;;;;;;0.50;0.10;;;11.30;99.90;;;;;;5010309;28;20904;-76
2023/12/26 00:43:07;;;;;;;0.50;0.10;;;11.20;99.90;;;;;;5007314;28;20878;-76
2023/12/26 00:45:35;;;;;;;0.50;0.10;;;11.30;99.90;;;;;;5013261;28;20459;-75
2023/12/26 00:48:03;;;;;;;0.50;0.10;;;11.30;99.90;;;;;;5008472;28;20451;-75
2023/12/26 00:50:30;;;;;;;0.50;0.10;;;11.20;99.90;;;;;;5013594;28;20451;-75
2023/12/26 00:53:00;;;;;;;0.50;0.20;;;11.30;99.90;;;;;;5013676;28;20546;-75
2023/12/26 00:55:28;;;;;;;0.50;0.10;;;11.20;99.90;;;;;;5013509;28;20525;-75
2023/12/26 00:57:57;;;;;;;0.60;0.20;;;11.20;99.90;;;;;;5011072;28;20454;-75
2023/12/26 01:00:25;;;;;;;0.50;0.10;;;11.30;99.90;;;;;;5019459;28;20532;-74
2023/12/26 01:02:53;;;;;;;0.50;0.10;;;11.30;99.90;;;;;;5016695;28;20451;-75
2023/12/26 01:05:22;;;;;;;0.60;0.20;;;11.30;99.90;;;;;;5016342;28;20499;-75
2023/12/26 01:07:50;;;;;;;0.50;0.10;;;11.30;99.90;;;;;;5014443;28;20466;-75
2023/12/26 01:10:18;;;;;;;0.50;0.20;;;11.30;99.90;;;;;;5028560;28;20943;-75
2023/12/26 01:12:46;;;;;;;0.50;0.10;;;11.30;99.90;;;;;;5016115;28;20562;-75
2023/12/26 01:15:15;;;;;;;0.70;0.20;;;11.30;99.90;;;;;;5019940;28;20454;-74
2023/12/26 01:17:44;;;;;;;0.50;0.10;;;11.30;99.90;;;;;;5022947;28;20859;-75
2023/12/26 01:20:12;;;;;;;0.50;0.10;;;11.40;99.90;;;;;;5020398;28;20892;-75
2023/12/26 01:22:40;;;;;;;0.50;0.10;;;11.40;99.90;;;;;;5014755;28;20427;-75
2023/12/26 01:25:11;;;;;;;0.50;0.10;;;11.30;99.90;;;;;;5032493;28;20462;-76
2023/12/26 01:27:39;;;;;;;0.97;0.37;;;11.30;99.90;;;;;;5033115;28;20446;-75
2023/12/26 01:30:08;;;;;;;0.50;0.10;;;11.30;99.90;;;;;;5037707;28;20453;-75
2023/12/26 01:32:37;;;;;;;0.50;0.10;;;11.20;99.90;;;;;;5029751;28;20453;-75
2023/12/26 01:35:07;;;;;;;0.50;0.10;;;11.20;99.90;;;;;;5025674;28;21028;-75
2023/12/26 01:37:35;;;;;;;0.50;0.10;;;11.20;99.90;;;;;;5013190;28;20483;-75
2023/12/26 01:40:03;;;;;;;0.50;0.10;;;11.20;99.90;;;;;;5008277;28;20876;-75
2023/12/26 01:42:31;;;;;;;0.50;0.10;;;11.20;99.90;;;;;;5010858;28;20465;-75
2023/12/26 01:45:00;;;;;;;0.50;0.20;;;11.20;99.90;;;;;;5007479;28;20447;-75
2023/12/26 01:47:29;;;;;;;0.50;0.10;;;11.10;99.90;;;;;;5011923;28;20558;-75
2023/12/26 01:49:59;;;;;;;0.50;0.10;;;11.10;99.90;;;;;;5004308;28;20810;-74
2023/12/26 01:52:28;;;;;;;0.50;0.10;;;11.10;99.90;;;;;;5022105;28;20456;-74
2023/12/26 01:54:56;;;;;;;0.50;0.20;;;11.20;99.90;;;;;;5003247;28;20475;-74
2023/12/26 01:57:24;;;;;;;0.50;0.10;;;11.20;99.90;;;;;;5008294;28;20475;-74
2023/12/26 01:59:52;;;;;;;0.60;0.33;;;11.10;99.90;;;;;;5011045;28;20481;-74
2023/12/26 02:02:20;;;;;;;0.50;0.10;;;11.10;99.90;;;;;;5006396;28;20598;-74
2023/12/26 02:04:48;;;;;;;0.50;0.17;;;11.10;99.90;;;;;;5013111;28;20450;-75
2023/12/26 02:07:17;;;;;;;0.50;0.10;;;11.10;99.90;;;;;;5009472;28;20483;-75
2023/12/26 02:09:45;;;;;;;0.50;0.10;;;11.10;99.90;;;;;;5005023;28;20443;-75
2023/12/26 02:12:14;;;;;;;0.50;0.10;;;11.10;99.90;;;;;;5017722;28;20451;-75
2023/12/26 02:14:42;;;;;;;0.50;0.10;;;11.10;99.90;;;;;;5024292;28;20471;-75
2023/12/26 02:17:17;;;;;;;0.50;0.10;;;11.00;99.90;;;;;;5021144;28;20498;-74
2023/12/26 02:19:47;;;;;;;0.50;0.10;;;10.90;99.90;;;;;;5011096;28;20480;-74
2023/12/26 02:22:17;;;;;;;0.50;0.10;;;10.80;99.90;;;;;;4999677;28;20454;-75
2023/12/26 02:24:47;;;;;;;0.50;0.10;;;;;;;;;;5013275;28;20450;-74
2023/12/26 02:27:18;;;;;;;0.50;0.10;;;10.80;99.90;;;;;;5016524;28;20544;-74
2023/12/26 02:29:49;;;;;;;0.50;0.10;;;10.70;99.90;;;;;;5016577;28;20455;-74
2023/12/26 02:32:20;;;;;;;1.27;0.40;;;10.70;99.90;;;;;;5025198;28;20935;-74
2023/12/26 02:34:50;;;;;;;0.50;0.10;;;10.70;99.90;;;;;;5008123;28;20483;-75
2023/12/26 02:37:18;;;;;;;0.50;0.10;;;10.70;99.90;;;;;;5006998;28;20878;-74
2023/12/26 02:39:50;;;;;;;0.50;0.20;;;10.70;99.90;;;;;;5008496;28;20564;-74
2023/12/26 02:42:18;;;;;;;0.50;0.20;;;10.70;99.90;;;;;;5011263;28;20895;-74
2023/12/26 02:44:47;;;;;;;0.50;0.20;;;10.70;99.90;;;;;;5005097;28;20509;-75
2023/12/26 02:47:15;;;;;;;0.50;0.10;;;10.80;99.90;;;;;;5016438;28;20958;-75
2023/12/26 02:49:43;;;;;;;0.50;0.10;;;10.80;99.90;;;;;;5021110;28;20493;-75
2023/12/26 02:52:11;;;;;;;0.50;0.10;;;10.80;99.90;;;;;;5014881;28;20503;-74
2023/12/26 02:54:39;;;;;;;0.70;0.30;;;10.80;99.90;;;;;;5011672;28;20450;-75
2023/12/26 02:57:09;;;;;;;0.60;0.40;;;10.80;99.90;;;;;;5016521;28;20532;-75
2023/12/26 02:59:37;;;;;;;0.50;0.20;;;10.90;99.90;;;;;;5016122;28;20457;-73
2023/12/26 03:02:05;;;;;;;0.60;0.23;;;10.90;99.90;;;;;;5015906;28;20454;-74
2023/12/26 03:04:33;;;;;;;4.20;0.30;;;10.90;99.90;;;;;;5015306;28;20452;-74
2023/12/26 03:07:00;;;;;;;0.80;0.73;;;10.90;99.90;;;;;;5015685;28;20829;-74
2023/12/26 03:09:28;;;;;;;0.50;0.10;;;10.90;99.90;;;;;;5016143;28;20487;-74
2023/12/26 03:11:56;;;;;;;0.50;0.10;;;11.00;99.90;;;;;;5015398;28;20945;-74
2023/12/26 03:14:25;;;;;;;0.50;0.10;;;11.00;99.90;;;;;;5015550;28;20517;-73
2023/12/26 03:16:53;;;;;;;0.50;0.10;;;11.10;99.90;;;;;;5015512;28;20573;-74
2023/12/26 03:19:21;;;;;;;0.50;0.10;;;11.10;99.90;;;;;;5008792;28;20468;-74
2023/12/26 03:21:50;;;;;;;0.50;0.10;;;11.10;99.90;;;;;;5019183;28;21028;-74
2023/12/26 03:24:18;;;;;;;0.50;0.10;;;11.10;99.90;;;;;;5020412;28;20538;-74
2023/12/26 03:26:46;;;;;;;0.50;0.10;;;11.10;99.90;;;;;;5017718;28;20526;-74
2023/12/26 03:29:14;;;;;;;1.40;0.30;;;11.10;99.90;;;;;;5015492;28;20955;-74
2023/12/26 03:31:46;;;;;;;0.50;0.10;;;11.20;99.90;;;;;;5015730;28;20962;-74
2023/12/26 03:34:14;;;;;;;0.50;0.20;;;11.10;99.90;;;;;;5003972;28;20450;-74
2023/12/26 03:36:44;;;;;;;0.50;0.13;;;11.10;99.90;;;;;;5006435;28;20456;-74
2023/12/26 03:39:12;;;;;;;0.50;0.10;;;11.10;99.90;;;;;;5011910;28;20456;-74
2023/12/26 03:41:40;;;;;;;0.50;0.10;;;11.10;99.90;;;;;;5019947;28;20485;-74
2023/12/26 03:44:08;;;;;;;0.50;0.23;;;11.10;99.90;;;;;;5015273;28;20462;-76
2023/12/26 03:46:36;;;;;;;0.50;0.10;;;11.20;99.90;;;;;;5008769;28;20583;-74
2023/12/26 03:49:06;;;;;;;0.50;0.10;;;11.20;99.90;;;;;;5022718;28;20455;-74
2023/12/26 03:51:34;;;;;;;0.50;0.10;;;11.20;99.90;;;;;;5005047;28;20453;-75
2023/12/26 03:54:03;;;;;;;0.50;0.10;;;11.10;99.90;;;;;;5029273;28;20456;-75
2023/12/26 03:56:31;;;;;;;0.50;0.10;;;11.10;99.90;;;;;;5021064;28;20996;-75
2023/12/26 03:59:00;;;;;;;0.50;0.10;;;11.10;99.90;;;;;;5016032;28;20499;-76
2023/12/26 04:01:28;;;;;;;1.37;0.40;;;11.10;99.90;;;;;;5011780;28;20525;-74
2023/12/26 04:03:56;;;;;;;0.50;0.20;;;11.00;99.90;;;;;;5023661;28;20553;-74
2023/12/26 04:06:26;;;;;;;0.50;0.20;;;11.00;99.90;;;;;;5014985;28;20907;-75
2023/12/26 04:08:54;;;;;;;3.23;1.03;;;11.00;99.90;;;;;;5015458;28;20458;-74
2023/12/26 04:11:22;;;;;;;0.50;0.10;;;10.90;99.90;;;;;;5015607;28;20449;-75
2023/12/26 04:13:50;;;;;;;0.50;0.10;;;10.80;99.90;;;;;;5021409;28;20455;-73
2023/12/26 04:16:19;;;;;;;0.70;0.33;;;10.90;99.90;;;;;;5015002;28;20478;-74
2023/12/26 04:18:46;;;;;;;0.60;0.50;;;10.90;99.90;;;;;;5015913;28;20451;-75
2023/12/26 04:21:15;;;;;;;0.60;0.30;;;10.90;99.90;;;;;;5015553;28;20489;-74
2023/12/26 04:23:44;;;;;;;0.50;0.20;;;10.80;99.90;;;;;;5015180;28;20451;-74
2023/12/26 04:26:13;;;;;;;0.70;0.40;;;10.80;99.90;;;;;;5016071;28;20467;-74
2023/12/26 04:28:41;;;;;;;0.67;0.20;;;10.70;99.90;;;;;;5007321;28;20447;-74
2023/12/26 04:31:09;;;;;;;0.80;0.30;;;10.80;99.90;;;;;;5016168;28;20439;-73
2023/12/26 04:33:37;;;;;;;1.33;0.30;;;10.80;99.90;;;;;;5015327;28;20500;-74
2023/12/26 04:36:06;;;;;;;1.00;0.50;;;10.70;99.90;;;;;;5013873;28;20544;-74
2023/12/26 04:38:34;;;;;;;1.23;0.73;;;10.70;99.90;;;;;;5009757;28;20442;-74
2023/12/26 04:41:09;;;;;;;0.50;0.10;;;10.70;99.90;;;;;;5005617;28;20524;-74
2023/12/26 04:43:38;;;;;;;1.17;0.30;;;;;;;;;;5010073;28;20870;-75
2023/12/26 04:46:06;;;;;;;1.30;0.60;;;10.80;99.90;;;;;;5014133;28;21023;-74
2023/12/26 04:48:34;;;;;;;0.70;0.43;;;10.70;99.90;;;;;;5022698;28;20443;-73
2023/12/26 04:51:03;;;;;;;0.50;0.10;;;10.80;99.90;;;;;;5013965;28;20447;-73
2023/12/26 04:53:32;;;;;;;0.50;0.10;;;10.80;99.90;;;;;;5014772;28;20466;-74
2023/12/26 04:56:00;;;;;;;0.60;0.30;;;10.80;99.90;;;;;;4999779;28;20491;-74
2023/12/26 04:58:29;;;;;;;1.00;0.40;;;10.80;99.90;;;;;;5007854;28;20446;-74
2023/12/26 05:00:57;;;;;;;1.50;0.63;;;10.80;99.90;;;;;;5013659;28;20508;-74
2023/12/26 05:03:25;;;;;;;0.80;0.50;;;10.70;99.90;;;;;;5013298;28;20843;-74
2023/12/26 05:05:53;;;;;;;0.50;0.20;;;10.70;99.90;;;;;;5012055;28;20492;-74
2023/12/26 05:08:22;;;;;;;0.50;0.10;;;10.70;99.90;;;;;;5013287;28;20471;-74
2023/12/26 05:10:50;;;;;;;0.50;0.20;;;10.70;99.90;;;;;;5013685;28;21211;-74
2023/12/26 05:13:18;;;;;;;0.50;0.10;;;10.70;99.90;;;;;;5017464;28;20454;-75
2023/12/26 05:15:47;;;;;;;6.30;0.67;;;10.70;99.90;;;;;;5012668;28;20506;-74
2023/12/26 05:18:15;;;;;;;0.70;0.20;;;10.60;99.90;;;;;;5013090;28;20470;-75
2023/12/26 05:20:43;;;;;;;0.50;0.20;;;10.60;99.90;;;;;;5012013;28;20455;-74
2023/12/26 05:23:11;;;;;;;0.50;0.10;;;10.60;99.90;;;;;;5012734;28;20486;-74
2023/12/26 05:25:39;;;;;;;0.70;0.50;;;10.60;99.90;;;;;;5012716;28;20467;-74
2023/12/26 05:28:07;;;;;;;0.50;0.10;;;10.70;99.90;;;;;;5007244;28;20848;-74
2023/12/26 05:30:35;;;;;;;0.50;0.20;;;10.70;99.90;;;;;;5010483;28;20508;-75
2023/12/26 05:33:05;;;;;;;0.50;0.10;;;10.70;99.90;;;;;;5020347;28;20453;-74
2023/12/26 05:35:34;;;;;;;0.50;0.10;;;10.70;99.90;;;;;;5021008;28;20458;-74
2023/12/26 05:38:02;;;;;;;5.30;0.83;;;10.70;99.90;;;;;;5025804;28;20474;-74
2023/12/26 05:40:30;;;;;;;0.50;0.20;;;;;;;;;;5030429;28;20477;-73
2023/12/26 05:42:58;;;;;;;0.50;0.20;;;10.60;99.90;;;;;;5006749;28;20565;-74
2023/12/26 05:45:26;;;;;;;4.53;1.17;;;10.60;99.90;;;;;;5000728;28;20446;-75
2023/12/26 05:47:54;;;;;;;0.50;0.20;;;10.60;99.90;;;;;;5012730;28;20442;-74
2023/12/26 05:50:24;;;;;;;0.50;0.10;;;10.60;99.90;;;;;;5001286;28;20528;-73
2023/12/26 05:52:52;;;;;;;3.60;0.87;;;10.60;99.90;;;;;;4993378;28;20443;-74
2023/12/26 05:55:20;;;;;;;0.60;0.30;;;10.50;99.90;;;;;;4998715;28;20455;-74
2023/12/26 05:57:48;;;;;;;0.50;0.10;;;10.50;99.90;;;;;;5016472;28;20446;-74
2023/12/26 06:00:17;;;;;;;0.50;0.10;;;10.50;99.90;;;;;;5017836;28;20458;-74
2023/12/26 06:02:45;;;;;;;0.50;0.10;;;10.60;99.90;;;;;;5003036;28;20528;-75
2023/12/26 06:05:13;;;;;;;3.00;2.73;;;10.60;99.90;;;;;;5002258;28;20850;-74
2023/12/26 06:07:42;;;;;;;1.90;0.83;;;10.50;99.90;;;;;;5017237;28;20459;-75
2023/12/26 06:10:10;;;;;;;0.50;0.17;;;10.50;99.90;;;;;;5016585;28;20519;-75
2023/12/26 06:12:39;;;;;;;0.50;0.20;;;10.40;99.90;;;;;;5018974;28;20450;-75
2023/12/26 06:15:08;;;;;;;0.80;0.50;;;10.40;99.90;;;;;;5035904;28;20449;-76
2023/12/26 06:17:36;;;;;;;0.50;0.10;;;10.40;99.90;;;;;;5035950;28;20456;-75
2023/12/26 06:20:07;;;;;;;0.50;0.20;;;10.40;99.90;;;;;;5023818;28;20475;-75
2023/12/26 06:22:35;;;;;;;1.33;0.83;;;10.40;99.90;;;;;;5016430;28;20482;-74
2023/12/26 06:25:05;;;;;;;0.50;0.10;;;10.40;99.90;;;;;;5015904;28;20452;-74
2023/12/26 06:27:33;;;;;;;0.50;0.20;;;10.50;99.90;;;;;;5016626;28;20455;-74
2023/12/26 06:30:01;;;;;;;0.50;0.20;;;10.40;99.90;;;;;;5016882;28;20488;-74
2023/12/26 06:32:29;;;;;;;0.50;0.10;;;10.30;99.90;;;;;;5016262;28;20446;-74
2023/12/26 06:34:57;;;;;;;0.50;0.20;;;10.30;99.90;;;;;;4998252;28;20509;-74
2023/12/26 06:37:25;;;;;;;0.50;0.27;;;10.30;99.90;;;;;;4996597;28;20557;-73
2023/12/26 06:39:53;;;;;;;0.50;0.10;;;10.40;99.90;;;;;;5018823;28;20545;-72
2023/12/26 06:42:23;;;;;;;0.50;0.20;;;10.40;99.90;;;;;;5029670;28;20507;-73
2023/12/26 06:44:51;;;;;;;0.50;0.20;;;10.50;99.90;;;;;;5010414;28;20455;-74
2023/12/26 06:47:19;;;;;;;0.50;0.10;;;10.50;99.90;;;;;;5000446;28;20863;-73
2023/12/26 06:49:49;;;;;;;0.60;0.40;;;10.50;99.90;;;;;;5001478;28;20475;-74
2023/12/26 06:52:18;;;;;;;0.50;0.10;;;10.50;99.90;;;;;;4996292;28;20443;-75
2023/12/26 06:54:46;;;;;;;2.83;0.97;;;10.60;99.90;;;;;;4996113;28;20494;-74
2023/12/26 06:57:16;;;;;;;0.50;0.30;;;10.60;99.90;;;;;;4996112;28;20530;-74
2023/12/26 06:59:48;;;;;;;0.50;0.10;;;10.50;99.90;;;;;;4999050;28;20986;-74
2023/12/26 07:02:16;;;;;;;0.50;0.20;;;10.50;99.90;;;;;;4998023;28;21032;-74
2023/12/26 07:04:45;;;;;;;0.50;0.20;;;10.60;99.90;;;;;;5006947;28;20906;-74
2023/12/26 07:07:13;;;;;;;0.50;0.20;;;10.60;99.90;;;;;;5013524;28;20514;-76
2023/12/26 07:09:41;;;;;;;0.50;0.10;;;10.50;99.90;;;;;;5017532;28;21118;-75
2023/12/26 07:12:09;;;;;;;0.50;0.20;;;10.50;99.90;;;;;;5015579;28;20471;-75
2023/12/26 07:14:37;;;;;;;2.37;0.57;;;10.60;99.90;;;;;;5015782;28;20454;-74
2023/12/26 07:17:07;;;;;;;0.50;0.10;;;10.60;99.90;;;;;;5015595;28;20468;-74
2023/12/26 07:19:35;;;;;;;0.50;0.10;;;10.70;99.90;;;;;;5015929;28;20522;-76
2023/12/26 07:22:04;;;;;;;0.50;0.10;;;10.70;99.90;;;;;;5000708;28;20519;-75
2023/12/26 07:24:32;;;;;;;0.50;0.10;;;10.70;99.90;;;;;;4995612;28;20516;-74
2023/12/26 07:26:59;;;;;;;1.73;0.60;;;10.70;99.90;;;;;;5006984;28;20553;-75
2023/12/26 07:29:28;;;;;;;0.50;0.10;;;10.80;99.90;;;;;;5015666;28;20536;-76
2023/12/26 07:31:56;;;;;;;0.50;0.10;;;10.80;99.90;;;;;;5015860;28;20477;-75
2023/12/26 07:34:26;;;;;;;0.50;0.10;;;10.80;99.90;;;;;;5015217;28;20515;-74
2023/12/26 07:36:54;;;;;;;0.50;0.10;;;10.80;99.90;;;;;;5014440;28;20997;-75
2023/12/26 07:39:22;;;;;;;0.90;0.57;;;10.80;99.90;;;;;;5002313;28;20758;-75
2023/12/26 07:41:50;;;;;;;0.60;0.40;;;10.70;99.90;;;;;;4997899;28;20474;-74
2023/12/26 07:44:18;;;;;;;0.50;0.10;;;10.70;99.90;;;;;;5004921;28;20487;-75
2023/12/26 07:46:46;;;;;;;0.97;0.43;;;10.80;99.90;;;;;;5015189;28;20864;-75
2023/12/26 07:49:14;;;;;;;0.50;0.10;;;10.80;99.90;;;;;;5005687;28;20533;-75
2023/12/26 07:51:45;;;;;;;0.50;0.10;;;10.80;99.90;;;;;;5008149;28;20441;-75
2023/12/26 07:54:13;;;;;;;0.83;0.30;;;10.80;99.90;;;;;;5014867;28;20457;-75
2023/12/26 07:56:41;;;;;;;0.50;0.10;;;10.80;99.90;;;;;;5003822;28;20462;-75
2023/12/26 07:59:10;;;;;;;0.50;0.20;;;10.70;99.90;;;;;;5000031;28;20447;-74
2023/12/26 08:01:38;;;;;;;0.50;0.20;;;;;;;;;;5014715;28;20542;-74
2023/12/26 08:04:06;;;;;;;0.50;0.10;;;10.70;99.90;;;;;;4999183;28;20487;-73
2023/12/26 08:06:34;;;;;;;2.67;0.67;;;10.70;99.90;;;;;;4993899;28;20480;-74
2023/12/26 08:09:04;;;;;;;0.50;0.20;;;10.70;99.90;;;;;;4999771;28;20451;-75
2023/12/26 08:11:32;;;;;;;0.50;0.20;;;10.60;99.90;;;;;;5003935;28;20451;-74
2023/12/26 08:14:00;;;;;;;0.50;0.10;;;10.70;99.90;;;;;;5007099;28;20438;-74
2023/12/26 08:16:28;;;;;;;0.50;0.20;;;10.70;99.90;;;;;;5002336;28;20558;-74
2023/12/26 08:18:57;;;;;;;0.50;0.10;;;10.70;99.90;;;;;;5001748;28;20575;-74
2023/12/26 08:21:26;;;;;;;0.50;0.10;;;10.70;99.90;;;;;;5013546;28;20458;-73
2023/12/26 08:23:54;;;;;;;0.50;0.10;;;;;;;;;;5027580;28;20508;-73
2023/12/26 08:26:30;;;;;;;0.50;0.20;;;10.70;99.90;;;;;;5026247;28;20476;-72
2023/12/26 08:28:58;;;;;;;4.57;3.63;;;10.70;99.90;;;;;;5024734;28;20422;-73
2023/12/26 08:31:26;;;;;;;1.00;0.60;;;10.70;99.90;;;;;;5023388;28;20470;-73
2023/12/26 08:33:54;;;;;;;1.63;0.57;;;10.60;99.90;;;;;;5022593;28;20470;-74
2023/12/26 08:36:22;;;;;;;0.50;0.20;;;10.60;99.90;;;;;;5005738;28;20467;-74
2023/12/26 08:38:51;;;;;;;0.73;0.73;;;10.60;99.90;;;;;;5003824;28;20447;-74
2023/12/26 08:41:19;;;;;;;0.50;0.20;;;10.60;99.90;;;;;;5002869;28;20458;-74
2023/12/26 08:43:48;;;;;;;0.50;0.20;;;10.70;99.90;;;;;;5000041;28;20475;-75
2023/12/26 08:46:16;;;;;;;0.60;0.57;;;10.70;99.90;;;;;;5002305;28;20518;-74
2023/12/26 08:48:44;;;;;;;1.10;0.30;;;10.80;99.90;;;;;;5005013;28;20558;-74
2023/12/26 08:51:12;;;;;;;0.50;0.10;;;10.70;99.90;;;;;;5015013;28;20858;-73
2023/12/26 08:53:41;;;;;;;0.70;0.40;;;10.80;99.90;;;;;;5017121;28;20813;-74
2023/12/26 08:56:09;;;;;;;2.60;2.40;;;10.70;99.90;;;;;;5013151;28;20475;-74
2023/12/26 08:58:37;;;;;;;0.60;0.30;;;10.80;99.90;;;;;;5011054;28;20501;-74
2023/12/26 09:01:09;;;;;;;0.50;0.10;;;10.70;99.90;;;;;;5012923;28;20542;-74
2023/12/26 09:03:38;;;;;;;0.50;0.20;;;10.70;99.90;;;;;;5014133;28;20490;-74
2023/12/26 09:06:10;;;;;;;0.73;0.40;;;10.70;99.90;;;;;;5014366;28;20543;-74
2023/12/26 09:08:39;;;;;;;0.50;0.20;;;10.80;99.90;;;;;;5003802;28;20461;-73
2023/12/26 09:11:07;;;;;;;1.00;0.67;;;10.70;99.90;;;;;;5000339;28;20491;-74
2023/12/26 09:13:35;;;;;;;2.93;0.70;;;10.70;99.90;;;;;;5010275;28;20518;-74
2023/12/26 09:16:03;;;;;;;5.60;0.40;;;10.70;99.90;;;;;;5018599;28;20465;-74
2023/12/26 09:18:32;;;;;;;0.60;0.40;;;10.70;99.90;;;;;;5012697;28;20495;-75
2023/12/26 09:21:01;;;;;;;0.50;0.10;;;10.70;99.90;;;;;;5012724;28;20438;-74
2023/12/26 09:23:29;;;;;;;0.50;0.20;;;10.70;99.90;;;;;;5011264;28;20969;-74
2023/12/26 09:25:57;;;;;;;0.50;0.20;;;10.60;99.90;;;;;;5003677;28;20461;-74
2023/12/26 09:28:25;;;;;;;1.33;0.80;;;10.60;99.90;;;;;;5017846;28;20513;-73
2023/12/26 09:30:53;;;;;;;0.63;0.53;;;10.60;99.90;;;;;;5024200;28;20537;-73
2023/12/26 09:33:21;;;;;;;0.50;0.10;;;;;;;;;;5008246;28;20462;-75
2023/12/26 09:35:51;;;;;;;0.50;0.20;;;10.60;99.90;;;;;;5006956;28;20478;-75
2023/12/26 09:38:19;;;;;;;0.50;0.10;;;10.70;99.90;;;;;;5004663;28;20889;-74
2023/12/26 09:40:48;;;;;;;12.53;1.23;;;10.70;99.90;;;;;;5015926;28;20463;-74
2023/12/26 09:43:16;;;;;;;0.60;0.30;;;10.70;99.90;;;;;;5012701;28;20679;-74
2023/12/26 09:45:45;;;;;;;0.60;0.50;;;10.60;99.90;;;;;;5020990;28;20463;-73
2023/12/26 09:48:13;;;;;;;0.70;0.50;;;10.60;99.90;;;;;;5011243;28;20530;-72
2023/12/26 09:50:43;;;;;;;0.50;0.10;;;10.70;99.90;;;;;;5012395;28;20530;-73
2023/12/26 09:53:14;;;;;;;1.23;0.23;;;10.40;99.90;;;;;;5020831;28;20505;-73
2023/12/26 09:55:42;;;;;;;0.80;0.80;;;10.70;99.90;;;;;;5006438;28;20945;-72
2023/12/26 09:58:10;;;;;;;0.50;0.20;;;10.70;99.90;;;;;;5012454;28;20515;-73
2023/12/26 10:00:39;;;;;;;0.50;0.27;;;10.70;99.90;;;;;;5022099;28;21037;-74
2023/12/26 10:03:08;;;;;;;0.50;0.10;;;10.70;99.90;;;;;;5006311;28;20937;-72
2023/12/26 10:05:36;;;;;;;0.60;0.20;;;10.60;99.90;;;;;;5006801;28;20494;-73
2023/12/26 10:08:05;;;;;;;1.03;0.50;;;10.80;99.90;;;;;;5020863;28;20558;-73
2023/12/26 10:10:34;;;;;;;0.50;0.20;;;10.70;99.90;;;;;;5012093;28;20549;-73
2023/12/26 10:13:02;;;;;;;0.50;0.10;;;10.80;99.90;;;;;;5022170;28;20488;-73
2023/12/26 10:15:30;;;;;;;0.50;0.10;;;10.80;99.90;;;;;;5001015;28;20576;-73
2023/12/26 10:17:58;;;;;;;0.50;0.20;;;10.80;99.90;;;;;;5010408;28;20553;-74
2023/12/26 10:20:26;;;;;;;0.50;0.20;;;10.80;99.90;;;;;;5016439;28;20444;-73
2023/12/26 10:22:54;;;;;;;4.53;1.70;;;10.70;99.90;;;;;;5005470;28;20463;-74
2023/12/26 10:25:24;;;;;;;0.60;0.20;;;10.70;99.90;;;;;;4994979;28;20480;-74
2023/12/26 10:27:57;;;;;;;0.60;0.30;;;10.70;99.90;;;;;;5001808;28;20506;-75
2023/12/26 10:30:26;;;;;;;3.50;0.50;;;10.60;99.90;;;;;;4997250;28;21009;-74
2023/12/26 10:33:00;;;;;;;0.50;0.10;;;10.60;99.90;;;;;;5002710;28;20448;-73
2023/12/26 10:35:30;;;;;;;0.50;0.17;;;6.70;99.90;;;;;;5014784;28;20513;-74
2023/12/26 10:37:59;;;;;;;0.77;0.30;;;;;;;;;;5018402;28;20969;-75
2023/12/26 10:40:27;;;;;;;0.50;0.20;;;10.70;99.90;;;;;;5013612;28;20446;-74
2023/12/26 10:43:00;;;;;;;0.60;0.20;;;10.70;99.90;;;;;;5011064;28;20525;-75
2023/12/26 10:45:30;;;;;;;0.97;0.40;;;10.70;99.90;;;;;;5007165;28;20482;-76
2023/12/26 10:47:59;;;;;;;0.50;0.13;;;10.80;99.90;;;;;;5011918;28;20448;-73
2023/12/26 10:50:29;;;;;;;0.97;0.53;;;10.80;99.90;;;;;;5008754;28;20503;-73
2023/12/26 10:53:11;;;;;;;0.77;0.40;;;10.80;99.90;;;;;;5004320;28;20498;-73
2023/12/26 10:55:40;;;;;;;0.50;0.30;;;10.90;99.90;;;;;;5009877;28;20506;-73
2023/12/26 10:58:20;;;;;;;0.87;0.23;;;10.90;99.90;;;;;;5033280;28;20462;-72
2023/12/26 13:53:48;;;;;;;0.50;0.10;;;12.00;99.90;;;;;;5011177;28;20501;-75
2023/12/26 13:56:15;;;;;;;1.13;0.50;;;12.00;99.90;;;;;;5015025;28;20460;-75
2023/12/26 13:58:43;;;;;;;0.50;0.10;;;12.00;99.90;;;;;;5005781;28;20497;-75
2023/12/26 14:01:11;;;;;;;2.93;0.50;;;12.00;99.90;;;;;;5004262;28;20451;-75
2023/12/26 14:03:39;;;;;;;0.50;0.10;;;12.00;99.90;;;;;;4999686;28;20460;-75
2023/12/26 14:06:07;;;;;;;0.50;0.10;;;12.00;99.90;;;;;;5007798;28;20791;-76
2023/12/26 14:08:35;;;;;;;0.50;0.20;;;11.90;99.90;;;;;;5011779;28;20956;-75
2023/12/26 14:11:04;;;;;;;0.50;0.17;;;12.00;99.90;;;;;;5021250;28;20459;-75
2023/12/26 14:13:32;;;;;;;0.60;0.33;;;12.00;99.90;;;;;;5017553;28;20455;-75
2023/12/26 14:16:00;;;;;;;0.50;0.10;;;12.00;99.90;;;;;;5025651;28;20526;-76
2023/12/26 14:18:28;;;;;;;0.50;0.10;;;12.10;99.90;;;;;;5014681;28;20506;-76
2023/12/26 14:20:56;;;;;;;0.50;0.10;;;12.10;99.90;;;;;;5006019;28;20485;-74
2023/12/26 14:23:24;;;;;;;0.50;0.10;;;12.00;99.90;;;;;;5012674;28;20544;-74
2023/12/26 14:25:52;;;;;;;0.50;0.10;;;12.00;99.90;;;;;;5007010;28;20565;-74
2023/12/26 14:28:21;;;;;;;0.50;0.10;;;;;;;;;;5015695;28;20458;-74
2023/12/26 14:30:49;;;;;;;0.50;0.20;;;11.90;99.90;;;;;;5015758;28;20443;-74
2023/12/26 14:33:20;;;;;;;0.50;0.10;;;11.90;99.90;;;;;;5023653;28;20460;-74
2023/12/26 14:35:49;;;;;;;0.50;0.10;;;11.90;99.90;;;;;;5023360;28;20558;-74
2023/12/26 14:38:17;;;;;;;0.50;0.10;;;11.90;99.90;;;;;;5023740;28;20442;-76
2023/12/26 14:40:46;;;;;;;0.50;0.10;;;11.90;99.90;;;;;;5007135;28;20959;-74
2023/12/26 14:43:16;;;;;;;0.50;0.17;;;11.90;99.90;;;;;;5024639;28;20462;-75
2023/12/26 14:45:45;;;;;;;0.50;0.10;;;11.90;99.90;;;;;;5024480;28;20492;-75
2023/12/26 14:48:13;;;;;;;0.50;0.10;;;11.90;99.90;;;;;;5015733;28;20478;-76
2023/12/26 14:50:42;;;;;;;0.50;0.10;;;11.90;99.90;;;;;;5025643;28;20575;-76
2023/12/26 14:53:09;;;;;;;11.03;0.93;;;11.90;99.90;;;;;;5012682;28;20551;-74
2023/12/26 14:55:37;;;;;;;0.50;0.10;;;12.00;99.90;;;;;;5013295;28;20530;-76
2023/12/26 14:58:06;;;;;;;1.73;0.20;;;12.00;99.90;;;;;;5013934;28;20866;-74
2023/12/26 15:00:34;;;;;;;0.70;0.20;;;12.00;99.90;;;;;;5006603;28;20940;-73
2023/12/26 15:03:10;;;;;;;7.20;0.70;;;11.90;99.90;;;;;;5006436;28;20452;-73
2023/12/26 15:05:38;;;;;;;0.50;0.10;;;11.90;99.90;;;;;;5020134;28;20490;-75
2023/12/26 15:08:07;;;;;;;0.50;0.10;;;11.90;99.90;;;;;;5013079;28;20486;-74
2023/12/26 15:10:36;;;;;;;0.50;0.10;;;;;;;;;;5020571;28;20776;-74
2023/12/26 15:13:04;;;;;;;1.57;0.40;;;11.90;99.90;;;;;;5027292;28;20482;-75
2023/12/26 15:15:32;;;;;;;0.50;0.10;;;12.00;99.90;;;;;;5007521;28;20503;-74
2023/12/26 15:18:00;;;;;;;0.50;0.10;;;12.00;99.90;;;;;;5016375;28;20476;-74
2023/12/26 15:20:30;;;;;;;0.60;0.30;;;11.90;99.90;;;;;;5014596;28;20444;-73
2023/12/26 15:22:58;;;;;;;0.50;0.20;;;11.90;99.90;;;;;;5014756;28;20469;-73
2023/12/26 15:25:26;;;;;;;0.60;0.20;;;11.80;99.90;;;;;;5017368;28;20521;-73
2023/12/26 15:27:54;;;;;;;0.60;0.40;;;11.80;99.90;;;;;;5032684;28;20446;-73
2023/12/26 15:30:23;;;;;;;0.50;0.17;;;;;;;;;;5034630;28;20461;-74
2023/12/26 15:32:52;;;;;;;0.50;0.10;;;11.70;99.90;;;;;;5036369;28;20466;-73
2023/12/26 15:35:20;;;;;;;0.50;0.10;;;11.70;99.90;;;;;;5035474;28;20474;-73
2023/12/26 15:37:49;;;;;;;0.50;0.20;;;11.70;99.90;;;;;;5021378;28;20482;-74
2023/12/26 15:40:18;;;;;;;0.50;0.10;;;11.70;99.90;;;;;;5017962;28;20448;-74
2023/12/26 15:42:46;;;;;;;0.50;0.20;;;11.60;99.90;;;;;;5024273;28;20436;-74
2023/12/26 15:45:14;;;;;;;0.50;0.20;;;11.60;99.90;;;;;;5022616;28;20446;-74
2023/12/26 15:47:42;;;;;;;0.50;0.10;;;11.60;99.90;;;;;;5013774;28;21016;-74
2023/12/26 15:50:10;;;;;;;0.50;0.10;;;11.60;99.90;;;;;;5024527;28;20506;-74